createdAt,value
2018-04-07T00:01:58.908Z,58.60
2018-04-07T00:04:26.416Z,57.80
2018-04-07T00:06:54.691Z,57.90
2018-04-07T00:09:22.226Z,57.90
2018-04-07T00:11:49.745Z,58.30
2018-04-07T00:14:18.898Z,58.00
2018-04-07T00:16:46.415Z,58.00
2018-04-07T00:19:13.965Z,58.20
2018-04-07T00:21:41.497Z,58.90
2018-04-07T00:24:09.032Z,58.00
2018-04-07T00:26:36.591Z,58.70
2018-04-07T00:29:04.882Z,58.60
2018-04-07T00:31:33.255Z,58.50
2018-04-07T00:34:00.815Z,58.40
2018-04-07T00:36:28.323Z,58.30
2018-04-07T00:38:55.862Z,58.70
2018-04-07T00:41:23.364Z,58.50
2018-04-07T00:43:50.869Z,58.50
2018-04-07T00:46:18.362Z,58.40
2018-04-07T00:48:45.863Z,58.80
2018-04-07T00:51:14.177Z,58.90
2018-04-07T00:53:41.722Z,58.80
2018-04-07T00:56:09.231Z,58.40
2018-04-07T00:58:36.815Z,59.00
2018-04-07T01:01:04.324Z,58.90
2018-04-07T01:03:32.402Z,59.00
2018-04-07T01:06:00.709Z,58.70
2018-04-07T01:08:28.224Z,59.10
2018-04-07T01:10:55.721Z,59.10
2018-04-07T01:13:23.206Z,59.10
2018-04-07T01:15:50.730Z,59.00
2018-04-07T01:18:18.248Z,59.00
2018-04-07T01:20:45.745Z,58.80
2018-04-07T01:23:13.239Z,59.20
2018-04-07T01:25:40.747Z,59.30
2018-04-07T01:28:08.256Z,59.00
2018-04-07T01:30:36.535Z,58.90
2018-04-07T01:33:04.805Z,59.30
2018-04-07T01:35:33.784Z,59.10
2018-04-07T01:38:01.360Z,59.60
2018-04-07T01:40:29.626Z,59.10
2018-04-07T01:42:57.948Z,58.80
2018-04-07T01:45:26.167Z,58.80
2018-04-07T01:47:55.288Z,59.30
2018-04-07T01:50:22.804Z,59.30
2018-04-07T01:52:50.291Z,59.10
2018-04-07T01:55:18.613Z,59.10
2018-04-07T01:57:46.438Z,59.10
2018-04-07T02:00:13.946Z,59.50
2018-04-07T02:02:41.451Z,59.70
2018-04-07T02:05:09.792Z,59.60
2018-04-07T02:07:37.308Z,59.50
2018-04-07T02:10:04.793Z,59.90
2018-04-07T02:12:32.302Z,60.20
2018-04-07T02:15:00.802Z,60.10
2018-04-07T02:17:28.303Z,60.00
2018-04-07T02:19:55.812Z,60.30
2018-04-07T02:22:23.311Z,60.30
2018-04-07T02:24:51.572Z,60.50
2018-04-07T02:27:19.081Z,60.50
2018-04-07T02:29:47.377Z,60.80
2018-04-07T02:32:14.880Z,60.70
2018-04-07T02:34:42.396Z,60.40
2018-04-07T02:37:09.925Z,61.00
2018-04-07T02:39:39.031Z,61.50
2018-04-07T02:42:07.308Z,61.20
2018-04-07T02:44:35.594Z,61.40
2018-04-07T02:47:03.126Z,61.40
2018-04-07T02:49:31.011Z,61.00
2018-04-07T02:51:58.591Z,61.30
2018-04-07T02:54:26.098Z,60.90
2018-04-07T02:56:53.626Z,61.20
2018-04-07T02:59:21.903Z,60.90
2018-04-07T03:01:49.408Z,60.90
2018-04-07T03:04:17.701Z,61.20
2018-04-07T03:06:46.028Z,60.70
2018-04-07T03:09:13.526Z,60.70
2018-04-07T03:11:41.038Z,60.90
2018-04-07T03:14:08.647Z,61.10
2018-04-07T03:16:36.914Z,60.90
2018-04-07T03:19:04.442Z,60.90
2018-04-07T03:21:31.954Z,60.40
2018-04-07T03:23:59.451Z,60.40
2018-04-07T03:26:26.971Z,61.10
2018-04-07T03:28:54.463Z,60.90
2018-04-07T03:31:22.061Z,61.30
2018-04-07T03:33:49.597Z,60.70
2018-04-07T03:36:17.109Z,60.80
2018-04-07T03:38:44.607Z,61.00
2018-04-07T03:41:12.104Z,61.00
2018-04-07T03:43:41.027Z,61.10
2018-04-07T03:46:08.580Z,61.00
2018-04-07T03:48:36.067Z,61.00
2018-04-07T03:51:03.569Z,60.70
2018-04-07T03:53:31.153Z,60.60
2018-04-07T03:55:58.687Z,60.90
2018-04-07T03:58:26.209Z,60.90
2018-04-07T04:00:54.478Z,60.70
2018-04-07T04:03:21.994Z,60.70
2018-04-07T04:05:49.600Z,61.00
2018-04-07T04:08:17.204Z,61.00
2018-04-07T04:10:45.480Z,61.10
2018-04-07T04:13:12.996Z,60.90
2018-04-07T04:15:41.271Z,61.30
2018-04-07T04:18:08.797Z,61.20
2018-04-07T04:20:36.291Z,61.80
2018-04-07T04:23:03.803Z,61.20
2018-04-07T04:25:31.327Z,61.50
2018-04-07T04:27:59.615Z,62.00
2018-04-07T04:30:27.897Z,61.90
2018-04-07T04:32:56.244Z,62.00
2018-04-07T04:35:23.766Z,62.00
2018-04-07T04:37:51.286Z,61.80
2018-04-07T04:40:19.586Z,62.00
2018-04-07T04:42:47.112Z,61.90
2018-04-07T04:45:15.401Z,62.50
2018-04-07T04:47:42.928Z,62.40
2018-04-07T04:50:10.452Z,62.40
2018-04-07T04:52:38.000Z,62.80
2018-04-07T04:55:05.562Z,62.40
2018-04-07T04:57:33.040Z,62.90
2018-04-07T05:00:00.554Z,63.40
2018-04-07T05:02:28.051Z,62.80
2018-04-07T05:04:56.406Z,62.80
2018-04-07T05:07:24.735Z,62.90
2018-04-07T05:09:52.350Z,63.00
2018-04-07T05:12:19.866Z,63.10
2018-04-07T05:14:47.368Z,63.20
2018-04-07T05:17:14.879Z,62.60
2018-04-07T05:19:43.236Z,63.10
2018-04-07T05:22:10.802Z,63.10
2018-04-07T05:24:38.312Z,63.00
2018-04-07T05:27:05.819Z,62.90
2018-04-07T05:29:33.359Z,63.40
2018-04-07T05:32:00.852Z,62.50
2018-04-07T05:34:29.135Z,62.60
2018-04-07T05:36:57.394Z,62.60
2018-04-07T05:39:24.899Z,62.60
2018-04-07T05:41:52.411Z,62.80
2018-04-07T05:44:19.930Z,63.20
2018-04-07T05:46:47.453Z,62.80
2018-04-07T05:49:14.988Z,64.20
2018-04-07T05:51:42.499Z,64.40
2018-04-07T05:54:10.131Z,62.40
2018-04-07T05:56:39.131Z,62.40
2018-04-07T05:59:06.653Z,62.40
2018-04-07T06:01:34.928Z,61.60
2018-04-07T06:04:02.456Z,61.60
2018-04-07T06:06:30.047Z,61.90
2018-04-07T06:08:57.538Z,61.20
2018-04-07T06:11:25.042Z,60.90
2018-04-07T06:13:52.590Z,60.90
2018-04-07T06:16:20.095Z,61.50
2018-04-07T06:18:48.002Z,61.30
2018-04-07T06:21:16.301Z,60.60
2018-04-07T06:23:43.804Z,60.60
2018-04-07T06:26:11.313Z,61.30
2018-04-07T06:28:38.967Z,59.80
2018-04-07T06:31:06.469Z,61.90
2018-04-07T06:33:33.974Z,60.40
2018-04-07T06:36:01.471Z,60.80
2018-04-07T06:38:29.751Z,60.80
2018-04-07T06:40:58.026Z,61.40
2018-04-07T06:43:26.312Z,60.30
2018-04-07T06:45:54.580Z,59.70
2018-04-07T06:48:22.860Z,59.90
2018-04-07T06:50:51.145Z,58.80
2018-04-07T06:53:19.403Z,59.50
2018-04-07T06:55:46.911Z,59.50
2018-04-07T06:58:14.440Z,61.30
2018-04-07T07:00:41.953Z,59.80
2018-04-07T07:03:09.478Z,61.30
2018-04-07T07:05:37.010Z,59.40
2018-04-07T07:08:04.524Z,59.80
2018-04-07T07:10:32.023Z,58.90
2018-04-07T07:13:00.296Z,58.30
2018-04-07T07:15:28.572Z,58.60
2018-04-07T07:17:56.839Z,57.40
2018-04-07T07:20:24.353Z,57.30
2018-04-07T07:22:51.877Z,57.50
2018-04-07T07:25:19.398Z,57.80
2018-04-07T07:27:46.976Z,57.10
2018-04-07T07:30:14.488Z,57.60
2018-04-07T07:32:42.012Z,58.10
2018-04-07T07:35:09.538Z,56.10
2018-04-07T07:37:37.119Z,57.50
2018-04-07T07:40:05.388Z,57.10
2018-04-07T07:42:33.664Z,58.20
2018-04-07T07:45:01.938Z,55.20
2018-04-07T07:47:30.222Z,56.80
2018-04-07T07:49:58.530Z,55.30
2018-04-07T07:52:26.027Z,55.30
2018-04-07T07:54:53.524Z,55.00
2018-04-07T07:57:21.039Z,55.70
2018-04-07T07:59:49.318Z,53.60
2018-04-07T08:02:16.819Z,53.60
2018-04-07T08:04:44.326Z,53.60
2018-04-07T08:07:11.839Z,53.40
2018-04-07T08:09:39.389Z,53.10
2018-04-07T08:12:07.662Z,54.10
2018-04-07T08:14:35.996Z,52.30
2018-04-07T08:17:03.517Z,52.30
2018-04-07T08:19:31.057Z,52.70
2018-04-07T08:21:58.588Z,52.20
2018-04-07T08:24:26.140Z,52.20
2018-04-07T08:26:53.665Z,51.70
2018-04-07T08:29:21.179Z,52.20
2018-04-07T08:31:49.465Z,52.00
2018-04-07T08:34:16.971Z,52.00
2018-04-07T08:36:45.410Z,52.00
2018-04-07T08:39:12.977Z,51.90
2018-04-07T08:41:40.504Z,52.10
2018-04-07T08:44:08.012Z,52.10
2018-04-07T08:46:35.510Z,52.60
2018-04-07T08:49:03.044Z,53.00
2018-04-07T08:51:31.334Z,52.70
2018-04-07T08:53:59.422Z,52.80
2018-04-07T08:56:26.925Z,53.10
2018-04-07T08:58:54.446Z,52.00
2018-04-07T09:01:22.779Z,52.40
2018-04-07T09:03:50.313Z,52.30
2018-04-07T09:06:17.870Z,52.30
2018-04-07T09:08:45.377Z,52.20
2018-04-07T09:11:12.886Z,51.60
2018-04-07T09:13:40.417Z,51.60
2018-04-07T09:16:08.745Z,50.80
2018-04-07T09:18:36.311Z,50.70
2018-04-07T09:21:04.596Z,50.80
2018-04-07T09:23:32.887Z,50.80
2018-04-07T09:26:00.392Z,50.80
2018-04-07T09:28:27.912Z,51.00
2018-04-07T09:31:01.212Z,51.40
2018-04-07T09:33:29.481Z,50.70
2018-04-07T09:35:57.760Z,50.40
2018-04-07T09:38:26.066Z,50.80
2018-04-07T09:40:54.370Z,50.80
2018-04-07T09:43:21.880Z,50.30
2018-04-07T09:45:50.168Z,51.00
2018-04-07T09:48:17.679Z,50.90
2018-04-07T09:50:45.202Z,50.30
2018-04-07T09:53:12.723Z,49.70
2018-04-07T09:55:41.099Z,49.90
2018-04-07T09:58:09.373Z,49.00
2018-04-07T10:00:37.657Z,48.80
2018-04-07T10:03:05.991Z,48.90
2018-04-07T10:05:33.557Z,48.90
2018-04-07T10:08:02.725Z,48.80
2018-04-07T10:10:30.479Z,48.70
2018-04-07T10:12:57.998Z,48.40
2018-04-07T10:15:25.506Z,49.20
2018-04-07T10:17:53.033Z,48.70
2018-04-07T10:20:21.412Z,47.50
2018-04-07T10:22:48.968Z,47.50
2018-04-07T10:25:16.464Z,48.80
2018-04-07T10:27:43.992Z,47.10
2018-04-07T10:30:11.513Z,48.20
2018-04-07T10:32:39.048Z,48.40
2018-04-07T10:35:06.593Z,48.90
2018-04-07T10:37:34.108Z,47.00
2018-04-07T10:40:01.631Z,47.20
2018-04-07T10:42:29.171Z,48.10
2018-04-07T10:44:56.715Z,48.80
2018-04-07T10:47:24.222Z,48.70
2018-04-07T10:49:52.179Z,47.20
2018-04-07T10:52:19.724Z,49.00
2018-04-07T10:54:47.266Z,48.00
2018-04-07T10:57:14.790Z,47.70
2018-04-07T10:59:42.291Z,48.30
2018-04-07T11:02:09.802Z,48.30
2018-04-07T11:04:38.082Z,47.40
2018-04-07T11:07:06.355Z,47.40
2018-04-07T11:09:35.398Z,46.80
2018-04-07T11:12:02.941Z,46.80
2018-04-07T11:14:30.477Z,47.10
2018-04-07T11:16:58.759Z,47.50
2018-04-07T11:19:26.271Z,47.50
2018-04-07T11:21:55.340Z,46.40
2018-04-07T11:24:22.867Z,46.40
2018-04-07T11:26:51.142Z,46.10
2018-04-07T11:29:19.421Z,45.80
2018-04-07T11:31:46.952Z,45.90
2018-04-07T11:34:14.462Z,46.60
2018-04-07T11:36:42.112Z,46.00
2018-04-07T11:39:09.715Z,46.50
2018-04-07T11:41:37.248Z,46.30
2018-04-07T11:44:04.884Z,45.60
2018-04-07T11:46:32.432Z,45.50
2018-04-07T11:49:00.773Z,44.20
2018-04-07T11:51:29.063Z,44.00
2018-04-07T11:53:58.082Z,44.40
2018-04-07T11:56:26.354Z,45.00
2018-04-07T11:58:54.640Z,44.40
2018-04-07T12:01:22.145Z,44.40
2018-04-07T12:03:49.651Z,44.20
2018-04-07T12:06:17.159Z,45.50
2018-04-07T12:08:44.666Z,45.20
2018-04-07T12:11:12.195Z,45.30
2018-04-07T12:13:39.708Z,44.80
2018-04-07T12:16:07.313Z,45.70
2018-04-07T12:18:34.836Z,42.30
2018-04-07T12:21:02.365Z,42.30
2018-04-07T12:23:29.873Z,45.10
2018-04-07T12:25:58.161Z,42.60
2018-04-07T12:28:26.272Z,42.60
2018-04-07T12:30:54.535Z,42.40
2018-04-07T12:33:23.679Z,42.80
2018-04-07T12:35:51.196Z,42.80
2018-04-07T12:38:18.725Z,42.60
2018-04-07T12:40:46.303Z,44.30
2018-04-07T12:43:13.767Z,43.60
2018-04-07T12:45:42.075Z,41.80
2018-04-07T12:48:09.619Z,41.60
2018-04-07T12:50:37.135Z,42.10
2018-04-07T12:53:04.650Z,41.50
2018-04-07T12:55:32.998Z,41.30
2018-04-07T12:58:01.263Z,41.90
2018-04-07T13:00:29.549Z,41.60
2018-04-07T13:02:57.070Z,41.60
2018-04-07T13:05:24.593Z,40.90
2018-04-07T13:07:52.120Z,40.90
2018-04-07T13:10:20.419Z,39.70
2018-04-07T13:12:48.012Z,39.70
2018-04-07T13:15:15.500Z,39.60
2018-04-07T13:17:43.774Z,38.30
2018-04-07T13:20:12.298Z,37.70
2018-04-07T13:22:39.820Z,37.70
2018-04-07T13:25:08.804Z,38.00
2018-04-07T13:27:37.586Z,38.10
2018-04-07T13:30:05.884Z,38.10
2018-04-07T13:32:34.159Z,37.10
2018-04-07T13:35:03.086Z,35.50
2018-04-07T13:37:30.591Z,35.50
2018-04-07T13:39:58.914Z,36.00
2018-04-07T13:42:26.437Z,36.00
2018-04-07T13:44:54.711Z,35.10
2018-04-07T13:47:22.980Z,34.60
2018-04-07T13:49:51.268Z,34.20
2018-04-07T13:52:19.572Z,33.80
2018-04-07T13:54:47.126Z,33.80
2018-04-07T13:57:14.653Z,33.60
2018-04-07T13:59:42.927Z,33.80
2018-04-07T14:02:10.466Z,33.70
2018-04-07T14:04:37.993Z,34.80
2018-04-07T14:07:05.515Z,32.60
2018-04-07T14:09:33.805Z,33.30
2018-04-07T14:12:01.358Z,33.30
2018-04-07T14:14:28.898Z,32.50
2018-04-07T14:16:57.191Z,31.30
2018-04-07T14:19:24.745Z,31.20
2018-04-07T14:21:53.010Z,30.90
2018-04-07T14:24:21.295Z,30.20
2018-04-07T14:26:49.570Z,30.30
2018-04-07T14:29:18.060Z,29.70
2018-04-07T14:31:45.573Z,29.60
2018-04-07T14:34:13.098Z,29.50
2018-04-07T14:36:40.621Z,29.60
2018-04-07T14:39:08.910Z,29.30
2018-04-07T14:41:36.437Z,29.20
2018-04-07T14:44:03.944Z,29.50
2018-04-07T14:46:31.491Z,30.40
2018-04-07T14:48:59.006Z,31.50
2018-04-07T14:51:27.244Z,33.10
2018-04-07T14:53:54.772Z,32.60
2018-04-07T14:56:22.285Z,33.20
2018-04-07T14:58:49.807Z,33.80
2018-04-07T15:01:17.329Z,34.20
2018-04-07T15:03:45.624Z,32.00
2018-04-07T15:06:13.142Z,32.00
2018-04-07T15:08:40.673Z,31.90
2018-04-07T15:11:08.223Z,32.10
2018-04-07T15:13:35.760Z,33.50
2018-04-07T15:16:03.274Z,33.30
2018-04-07T15:18:30.791Z,33.30
2018-04-07T15:20:58.295Z,32.00
2018-04-07T15:23:25.823Z,31.90
2018-04-07T15:25:53.329Z,32.20
2018-04-07T15:28:20.881Z,33.20
2018-04-07T15:30:48.433Z,33.80
2018-04-07T15:33:15.961Z,33.90
2018-04-07T15:35:43.499Z,34.20
2018-04-07T15:38:11.034Z,35.00
2018-04-07T15:40:38.561Z,35.50
2018-04-07T15:43:06.065Z,35.40
2018-04-07T15:45:33.641Z,35.10
2018-04-07T15:48:01.227Z,34.60
2018-04-07T15:50:29.653Z,34.80
2018-04-07T15:52:57.768Z,34.70
2018-04-07T15:55:25.302Z,34.30
2018-04-07T15:57:52.893Z,34.10
2018-04-07T16:00:20.416Z,34.10
2018-04-07T16:02:47.924Z,34.60
2018-04-07T16:05:15.485Z,34.40
2018-04-07T16:07:43.011Z,34.50
2018-04-07T16:10:10.537Z,34.70
2018-04-07T16:12:38.066Z,34.80
2018-04-07T16:15:05.573Z,34.70
2018-04-07T16:17:33.187Z,34.90
2018-04-07T16:20:00.713Z,34.40
2018-04-07T16:22:28.997Z,34.60
2018-04-07T16:24:56.548Z,34.60
2018-04-07T16:27:24.082Z,34.70
2018-04-07T16:29:51.609Z,34.70
2018-04-07T16:32:19.890Z,35.00
2018-04-07T16:34:48.778Z,35.50
2018-04-07T16:37:17.114Z,36.10
2018-04-07T16:39:44.637Z,36.00
2018-04-07T16:42:12.165Z,35.70
2018-04-07T16:44:40.492Z,35.90
2018-04-07T16:47:08.023Z,35.90
2018-04-07T16:49:36.324Z,36.60
2018-04-07T16:52:04.768Z,36.20
2018-04-07T16:54:32.291Z,37.40
2018-04-07T16:56:59.814Z,37.40
2018-04-07T16:59:27.403Z,37.70
2018-04-07T17:01:54.938Z,38.00
2018-04-07T17:04:22.465Z,37.70
2018-04-07T17:06:49.980Z,38.90
2018-04-07T17:09:17.491Z,38.20
2018-04-07T17:11:45.555Z,38.40
2018-04-07T17:14:13.862Z,39.00
2018-04-07T17:16:41.392Z,38.40
2018-04-07T17:19:08.909Z,38.20
2018-04-07T17:21:37.409Z,39.30
2018-04-07T17:24:06.009Z,39.90
2018-04-07T17:26:34.791Z,39.90
2018-04-07T17:29:03.067Z,40.60
2018-04-07T17:31:31.438Z,41.50
2018-04-07T17:34:00.321Z,41.60
2018-04-07T17:36:29.503Z,41.70
2018-04-07T17:38:57.034Z,41.90
2018-04-07T17:41:24.561Z,42.40
2018-04-07T17:43:52.303Z,42.60
2018-04-07T17:46:20.628Z,42.50
2018-04-07T17:48:48.150Z,42.40
2018-04-07T17:51:15.670Z,42.80
2018-04-07T17:53:43.188Z,43.00
2018-04-07T17:56:10.699Z,43.00
2018-04-07T17:58:38.224Z,43.20
2018-04-07T18:01:06.511Z,43.00
2018-04-07T18:03:34.986Z,43.00
2018-04-07T18:06:03.792Z,44.70
2018-04-07T18:08:31.632Z,44.10
2018-04-07T18:10:59.222Z,43.90
2018-04-07T18:13:26.757Z,43.90
2018-04-07T18:15:54.487Z,44.70
2018-04-07T18:18:22.066Z,44.10
2018-04-07T18:20:49.620Z,44.80
2018-04-07T18:23:17.255Z,45.20
2018-04-07T18:25:44.953Z,45.40
2018-04-07T18:28:12.713Z,45.40
2018-04-07T18:30:40.317Z,45.70
2018-04-07T18:33:08.694Z,46.00
2018-04-07T18:35:36.396Z,45.90
2018-04-07T18:38:04.448Z,46.10
2018-04-07T18:40:32.792Z,46.70
2018-04-07T18:43:01.252Z,46.80
2018-04-07T18:45:28.835Z,46.70
2018-04-07T18:47:57.206Z,46.50
2018-04-07T18:50:25.436Z,46.60
2018-04-07T18:52:53.045Z,47.10
2018-04-07T18:55:20.694Z,47.10
2018-04-07T18:57:48.344Z,47.20
2018-04-07T19:00:16.005Z,47.30
2018-04-07T19:02:43.724Z,47.50
2018-04-07T19:05:11.426Z,47.80
2018-04-07T19:07:39.754Z,47.60
2018-04-07T19:10:08.062Z,47.70
2018-04-07T19:12:35.688Z,47.70
2018-04-07T19:15:03.321Z,47.80
2018-04-07T19:17:30.953Z,47.90
2018-04-07T19:19:58.579Z,47.90
2018-04-07T19:22:26.293Z,47.90
2018-04-07T19:24:53.865Z,48.30
2018-04-07T19:27:21.403Z,48.50
2018-04-07T19:29:49.047Z,48.70
2018-04-07T19:32:16.652Z,48.50
2018-04-07T19:34:44.219Z,48.70
2018-04-07T19:37:11.855Z,49.00
2018-04-07T19:39:40.192Z,49.20
2018-04-07T19:42:09.584Z,49.50
2018-04-07T19:44:37.178Z,49.40
2018-04-07T19:47:04.836Z,49.40
2018-04-07T19:49:33.349Z,49.60
2018-04-07T19:52:00.919Z,49.90
2018-04-07T19:54:29.337Z,50.50
2018-04-07T19:56:56.944Z,50.40
2018-04-07T19:59:24.603Z,50.80
2018-04-07T20:01:53.160Z,51.20
2018-04-07T20:04:20.887Z,51.50
2018-04-07T20:06:49.363Z,51.40
2018-04-07T20:09:17.014Z,51.40
2018-04-07T20:11:44.636Z,51.40
2018-04-07T20:14:12.999Z,52.20
2018-04-07T20:16:40.552Z,52.10
2018-04-07T20:19:08.100Z,52.40
2018-04-07T20:21:35.675Z,52.80
2018-04-07T20:24:03.262Z,52.90
2018-04-07T20:26:30.816Z,53.10
2018-04-07T20:28:58.390Z,53.10
2018-04-07T20:31:25.912Z,53.40
2018-04-07T20:33:53.557Z,53.60
2018-04-07T20:36:21.166Z,53.40
2018-04-07T20:38:48.714Z,54.00
2018-04-07T20:41:17.180Z,54.00
2018-04-07T20:43:46.752Z,54.30
2018-04-07T20:46:14.271Z,54.70
2018-04-07T20:48:41.859Z,54.30
2018-04-07T20:51:10.786Z,55.00
2018-04-07T20:53:38.329Z,54.90
2018-04-07T20:56:05.927Z,55.10
2018-04-07T20:58:33.492Z,55.90
2018-04-07T21:01:01.052Z,56.70
2018-04-07T21:03:29.381Z,56.40
2018-04-07T21:05:56.940Z,56.50
2018-04-07T21:08:24.512Z,57.10
2018-04-07T21:10:52.085Z,58.00
2018-04-07T21:13:19.700Z,58.30
2018-04-07T21:15:48.019Z,58.70
2018-04-07T21:18:15.539Z,59.10
2018-04-07T21:20:43.070Z,58.70
2018-04-07T21:23:10.608Z,59.10
2018-04-07T21:25:38.183Z,58.90
2018-04-07T21:28:05.688Z,59.00
2018-04-07T21:30:33.212Z,59.30
2018-04-07T21:33:00.727Z,59.20
2018-04-07T21:35:28.291Z,59.40
2018-04-07T21:37:55.926Z,59.50
2018-04-07T21:40:23.428Z,59.60
2018-04-07T21:42:50.978Z,59.60
2018-04-07T21:45:18.567Z,59.50
2018-04-07T21:47:46.090Z,60.20
2018-04-07T21:50:13.619Z,60.60
2018-04-07T21:52:41.143Z,61.30
2018-04-07T21:55:08.896Z,61.80
2018-04-07T21:57:36.402Z,62.20
2018-04-07T22:00:03.977Z,62.10
2018-04-07T22:02:31.571Z,62.70
2018-04-07T22:04:59.149Z,63.30
2018-04-07T22:07:26.693Z,63.50
2018-04-07T22:09:54.219Z,63.70
2018-04-07T22:12:21.889Z,64.10
2018-04-07T22:14:49.422Z,64.20
2018-04-07T22:17:16.981Z,64.60
2018-04-07T22:19:45.452Z,64.30
2018-04-07T22:22:12.972Z,64.20
2018-04-07T22:24:40.515Z,64.80
2018-04-07T22:27:08.051Z,65.00
2018-04-07T22:29:35.564Z,65.20
2018-04-07T22:32:03.860Z,65.30
2018-04-07T22:34:31.395Z,65.20
2018-04-07T22:36:58.974Z,65.10
2018-04-07T22:39:27.259Z,66.20
2018-04-07T22:41:54.794Z,66.00
2018-04-07T22:44:22.313Z,66.50
2018-04-07T22:46:49.827Z,66.90
2018-04-07T22:49:17.367Z,66.70
2018-04-07T22:51:44.901Z,66.90
2018-04-07T22:54:13.191Z,66.60
2018-04-07T22:56:40.701Z,66.60
2018-04-07T22:59:08.229Z,67.20
2018-04-07T23:01:36.512Z,67.70
2018-04-07T23:04:04.021Z,69.00
2018-04-07T23:06:31.561Z,68.70
2018-04-07T23:08:59.159Z,68.00
2018-04-07T23:11:26.685Z,68.80
2018-04-07T23:13:54.229Z,68.80
2018-04-07T23:16:21.754Z,68.80
2018-04-07T23:18:50.042Z,68.90
2018-04-07T23:21:17.554Z,68.80
2018-04-07T23:23:45.075Z,68.90
2018-04-07T23:26:12.602Z,69.10
2018-04-07T23:28:40.900Z,69.30
2018-04-07T23:31:08.428Z,69.20
2018-04-07T23:33:36.885Z,69.70
2018-04-07T23:36:04.821Z,70.00
2018-04-07T23:38:32.362Z,70.50
2018-04-07T23:40:59.876Z,70.90
2018-04-07T23:43:27.435Z,70.80
2018-04-07T23:45:54.960Z,71.00
2018-04-07T23:48:22.479Z,71.20
2018-04-07T23:50:50.005Z,71.50
2018-04-07T23:53:17.522Z,71.30
2018-04-07T23:55:45.044Z,71.50
2018-04-07T23:58:12.602Z,71.50
